Time;durP1;ratioP1;P1;durP2;ratioP2;P2;SDS_P1;SDS_P2;PMS_P1;PMS_P2;Temp;Humidity;BMP_temperature;BMP_pressure;BME280_temperature;BME280_humidity;BME280_pressure;Samples;Min_cycle;Max_cycle;Signal;HPM_P1;HPM_P2
2023/06/13 00:00:07;;;;;;;4.17;2.70;;;22.80;83.20;;;;;;5016774;28;20049;-40
2023/06/13 00:02:34;;;;;;;4.88;2.70;;;22.70;83.80;;;;;;5016705;28;20386;-40
2023/06/13 00:05:01;;;;;;;6.80;3.00;;;22.70;81.50;;;;;;5016359;28;20053;-41
2023/06/13 00:07:26;;;;;;;6.28;2.97;;;22.70;82.10;;;;;;5005906;28;20479;-39
2023/06/13 00:09:52;;;;;;;4.85;3.00;;;22.70;82.20;;;;;;5015577;28;20104;-40
2023/06/13 00:12:20;;;;;;;4.03;2.60;;;22.70;82.40;;;;;;5014892;28;20026;-39
2023/06/13 00:14:50;;;;;;;16.40;3.03;;;22.60;82.70;;;;;;5016264;28;20075;-40
2023/06/13 00:17:16;;;;;;;2.78;2.35;;;22.50;82.90;;;;;;5015614;28;20425;-39
2023/06/13 00:19:43;;;;;;;3.17;2.47;;;22.50;83.00;;;;;;5016502;28;20018;-39
2023/06/13 00:22:13;;;;;;;9.40;2.90;;;22.50;82.00;;;;;;5016281;28;20025;-39
2023/06/13 00:24:41;;;;;;;5.25;2.80;;;22.40;81.70;;;;;;5016073;28;20470;-38
2023/06/13 00:27:07;;;;;;;;;;;22.40;83.20;;;;;;5016658;28;20029;-40
2023/06/13 00:29:32;;;;;;;2.72;2.15;;;22.30;82.90;;;;;;5017186;28;20011;-40
2023/06/13 00:31:58;;;;;;;3.80;2.50;;;22.30;83.40;;;;;;5033701;28;20025;-39
2023/06/13 00:34:24;;;;;;;4.00;2.65;;;22.20;82.90;;;;;;5033317;28;20554;-33
2023/06/13 00:36:50;;;;;;;2.65;2.45;;;22.20;83.20;;;;;;5029775;28;20116;-58
2023/06/13 00:39:15;;;;;;;4.97;3.40;;;22.10;83.30;;;;;;5035774;28;20053;-30
2023/06/13 00:41:41;;;;;;;2.63;2.42;;;22.10;83.30;;;;;;5035404;28;20461;-31
2023/06/13 00:44:07;;;;;;;3.35;2.50;;;22.00;83.10;;;;;;5035466;28;20017;-41
2023/06/13 00:46:34;;;;;;;3.40;2.47;;;22.00;84.50;;;;;;5035369;28;20036;-40
2023/06/13 00:49:01;;;;;;;3.58;2.65;;;21.90;83.80;;;;;;5023128;28;20121;-40
2023/06/13 00:51:29;;;;;;;3.30;3.00;;;21.90;83.20;;;;;;5014515;28;20026;-39
2023/06/13 00:53:56;;;;;;;;;;;21.90;84.40;;;;;;5016210;28;20436;-40
2023/06/13 00:56:24;;;;;;;3.42;2.30;;;21.80;84.40;;;;;;5014532;28;19927;-39
2023/06/13 00:58:50;;;;;;;3.50;2.67;;;21.80;84.40;;;;;;5013958;28;20487;-39
2023/06/13 01:01:19;;;;;;;3.25;2.35;;;21.80;84.00;;;;;;5015561;28;20371;-38
2023/06/13 01:03:45;;;;;;;7.53;2.85;;;21.70;85.00;;;;;;5015049;28;20470;-39
2023/06/13 01:06:13;;;;;;;4.65;2.83;;;21.60;84.60;;;;;;5021399;28;20119;-40
2023/06/13 01:08:40;;;;;;;3.63;2.97;;;21.50;85.40;;;;;;5035261;28;20025;-38
2023/06/13 01:11:28;;;;;;;5.07;2.70;;;21.50;84.60;;;;;;5035154;28;20017;-40
2023/06/13 01:14:03;;;;;;;;;;;21.50;84.80;;;;;;5035372;28;20103;-38
2023/06/13 01:16:40;;;;;;;2.90;2.42;;;21.40;85.10;;;;;;5032116;28;19917;-40
2023/06/13 01:19:21;;;;;;;4.30;2.50;;;21.30;85.10;;;;;;5034530;28;20099;-41
2023/06/13 01:21:48;;;;;;;5.50;3.30;;;21.30;85.40;;;;;;5020874;28;20041;-38
2023/06/13 01:24:34;;;;;;;2.92;2.63;;;21.30;84.90;;;;;;5015132;28;20022;-40
2023/06/13 01:27:01;;;;;;;3.03;2.70;;;21.30;85.20;;;;;;4995250;28;20264;-39
2023/06/13 01:29:29;;;;;;;4.00;2.73;;;21.20;85.60;;;;;;4998338;28;20029;-40
2023/06/13 01:31:56;;;;;;;;;;;21.20;85.60;;;;;;5035114;28;20091;-39
2023/06/13 01:34:24;;;;;;;;;;;21.20;85.40;;;;;;5035070;28;19909;-41
2023/06/13 01:36:50;;;;;;;3.45;2.72;;;21.10;85.90;;;;;;5031967;28;20008;-39
2023/06/13 01:39:16;;;;;;;3.63;2.92;;;21.10;86.10;;;;;;5034487;28;20029;-38
2023/06/13 01:41:42;;;;;;;3.15;2.38;;;21.00;86.20;;;;;;5034408;28;20014;-39
2023/06/13 01:44:11;;;;;;;6.28;2.47;;;21.00;86.00;;;;;;5030673;28;20024;-55
2023/06/13 01:47:02;;;;;;;8.18;2.83;;;20.90;87.00;;;;;;5034256;28;20543;-38
2023/06/13 01:49:49;;;;;;;15.70;3.38;;;20.90;86.60;;;;;;5018263;28;20018;-40
2023/06/13 01:52:37;;;;;;;3.08;2.33;;;20.80;87.40;;;;;;5024840;28;20498;-32
2023/06/13 01:55:06;;;;;;;3.55;2.90;;;20.70;87.70;;;;;;5032747;28;20026;-34
2023/06/13 01:57:44;;;;;;;3.50;2.83;;;20.70;87.30;;;;;;5033631;28;20494;-38
2023/06/13 02:00:14;;;;;;;3.63;2.50;;;20.70;87.50;;;;;;5013885;28;20057;-34
2023/06/13 02:02:41;;;;;;;11.38;3.05;;;20.70;88.10;;;;;;5033889;28;20022;-30
2023/06/13 02:05:08;;;;;;;5.82;3.40;;;20.60;87.30;;;;;;5033867;28;20014;-34
2023/06/13 02:07:36;;;;;;;3.40;2.67;;;20.50;88.40;;;;;;5031075;28;20049;-30
2023/06/13 02:10:05;;;;;;;3.08;2.78;;;20.40;88.50;;;;;;5032458;28;20029;-40
2023/06/13 02:12:31;;;;;;;4.38;3.08;;;20.40;88.20;;;;;;5030817;28;20099;-36
2023/06/13 02:14:57;;;;;;;7.65;3.10;;;20.40;89.20;;;;;;5032383;28;20035;-35
2023/06/13 02:17:23;;;;;;;6.53;2.90;;;20.40;90.00;;;;;;5033559;28;20034;-38
2023/06/13 02:19:49;;;;;;;3.03;2.47;;;20.30;89.70;;;;;;5033899;28;20057;-36
2023/06/13 02:22:15;;;;;;;2.80;2.60;;;20.30;88.40;;;;;;5030887;28;20410;-30
2023/06/13 02:24:41;;;;;;;2.88;2.58;;;20.30;88.60;;;;;;5033324;28;20037;-36
2023/06/13 02:27:07;;;;;;;6.75;2.72;;;20.30;90.00;;;;;;5033709;28;20105;-35
2023/06/13 02:29:35;;;;;;;3.60;2.90;;;20.20;89.00;;;;;;5033366;28;20028;-33
2023/06/13 02:32:00;;;;;;;3.67;3.05;;;20.20;89.90;;;;;;5033177;28;20029;-34
2023/06/13 02:34:26;;;;;;;5.03;3.20;;;20.20;89.00;;;;;;5033210;28;20025;-34
2023/06/13 02:36:51;;;;;;;5.82;2.95;;;20.10;89.20;;;;;;5030407;28;20386;-43
2023/06/13 02:39:17;;;;;;;5.10;3.55;;;20.10;89.70;;;;;;5033269;28;20029;-32
2023/06/13 02:41:43;;;;;;;4.25;2.97;;;20.00;90.10;;;;;;5033105;28;20026;-33
2023/06/13 02:44:09;;;;;;;4.22;2.85;;;20.00;89.70;;;;;;5031964;28;20450;-32
2023/06/13 02:46:34;;;;;;;6.55;2.58;;;19.90;90.30;;;;;;5033065;28;20529;-29
2023/06/13 02:49:00;;;;;;;4.18;2.95;;;19.90;90.40;;;;;;5020788;28;20100;-31
2023/06/13 02:51:26;;;;;;;4.35;2.88;;;19.80;90.10;;;;;;5016213;28;20117;-30
2023/06/13 02:53:51;;;;;;;3.88;3.20;;;19.80;90.10;;;;;;5032940;28;20390;-32
2023/06/13 02:56:17;;;;;;;7.35;3.33;;;19.70;90.10;;;;;;5031889;28;20053;-32
2023/06/13 02:58:43;;;;;;;4.75;3.20;;;19.60;90.00;;;;;;5031079;28;20029;-39
2023/06/13 03:01:08;;;;;;;7.03;3.30;;;19.60;90.30;;;;;;5032913;28;20072;-39
2023/06/13 03:03:34;;;;;;;4.97;2.63;;;19.50;90.40;;;;;;5032915;28;20068;-34
2023/06/13 03:06:02;;;;;;;4.88;3.28;;;19.50;90.30;;;;;;5030486;28;20097;-34
2023/06/13 03:08:27;;;;;;;3.10;2.70;;;19.40;90.30;;;;;;5032758;28;20033;-34
2023/06/13 03:10:53;;;;;;;7.50;3.13;;;19.30;90.30;;;;;;5032786;28;20118;-35
2023/06/13 03:13:19;;;;;;;4.45;3.03;;;19.30;90.70;;;;;;5032811;28;20033;-34
2023/06/13 03:15:47;;;;;;;12.32;3.53;;;19.20;90.40;;;;;;5032699;28;20494;-32
2023/06/13 03:18:13;;;;;;;;;;;19.20;90.60;;;;;;5033060;28;20044;-30
2023/06/13 03:20:45;;;;;;;4.32;3.17;;;19.20;90.60;;;;;;5029399;28;19960;-34
2023/06/13 03:23:12;;;;;;;4.53;3.30;;;19.20;90.60;;;;;;5032819;28;20021;-31
2023/06/13 03:25:40;;;;;;;3.67;2.80;;;19.20;90.40;;;;;;5031992;28;20028;-37
2023/06/13 03:28:06;;;;;;;7.15;3.10;;;19.10;90.40;;;;;;5032210;28;20112;-30
2023/06/13 03:30:32;;;;;;;12.68;3.72;;;19.00;90.50;;;;;;5032600;28;20465;-46
2023/06/13 03:32:58;;;;;;;4.28;3.42;;;19.00;90.50;;;;;;5032511;28;20482;-40
2023/06/13 03:35:24;;;;;;;3.90;2.92;;;18.90;90.70;;;;;;5030028;28;20030;-34
2023/06/13 03:37:49;;;;;;;4.50;3.28;;;18.90;90.80;;;;;;5032532;28;20033;-33
2023/06/13 03:40:15;;;;;;;4.55;2.88;;;18.90;91.10;;;;;;5032531;28;20425;-35
2023/06/13 03:42:41;;;;;;;3.70;2.70;;;18.90;91.30;;;;;;5032430;28;20040;-31
2023/06/13 03:45:07;;;;;;;5.97;3.25;;;18.80;90.90;;;;;;5032488;28;20386;-30
2023/06/13 03:47:32;;;;;;;5.63;3.80;;;18.70;91.00;;;;;;5028866;28;20030;-32
2023/06/13 03:49:58;;;;;;;5.28;3.53;;;18.70;91.10;;;;;;5016819;28;20033;-36
2023/06/13 03:52:23;;;;;;;4.90;2.47;;;18.60;91.40;;;;;;5032421;28;20092;-30
2023/06/13 03:54:49;;;;;;;3.30;2.50;;;18.60;91.50;;;;;;5021669;28;20509;-38
2023/06/13 03:57:15;;;;;;;3.38;2.90;;;18.60;91.60;;;;;;5012533;28;20046;-40
2023/06/13 03:59:42;;;;;;;4.47;3.20;;;18.60;91.80;;;;;;5011649;28;20044;-37
2023/06/13 04:02:07;;;;;;;8.45;3.58;;;18.60;92.00;;;;;;5017238;28;20108;-38
2023/06/13 04:04:33;;;;;;;5.50;3.28;;;18.60;91.60;;;;;;5030941;28;20488;-38
2023/06/13 04:07:04;;;;;;;4.30;2.80;;;18.60;91.90;;;;;;5031871;28;20452;-38
2023/06/13 04:09:29;;;;;;;5.43;3.53;;;18.60;92.10;;;;;;5032344;28;20105;-38
2023/06/13 04:11:55;;;;;;;6.35;3.10;;;18.50;92.10;;;;;;5032310;28;20383;-38
2023/06/13 04:14:21;;;;;;;4.70;3.45;;;18.50;91.80;;;;;;5032294;28;20470;-39
2023/06/13 04:16:46;;;;;;;4.28;2.70;;;18.50;91.90;;;;;;5030912;28;20029;-39
2023/06/13 04:19:18;;;;;;;7.25;2.97;;;18.50;91.90;;;;;;5032235;28;20033;-39
2023/06/13 04:21:46;;;;;;;5.32;3.17;;;18.50;92.10;;;;;;5029963;28;20037;-39
2023/06/13 04:24:12;;;;;;;3.72;2.90;;;18.50;92.10;;;;;;5032110;28;20105;-44
2023/06/13 04:26:38;;;;;;;3.95;2.25;;;18.50;92.30;;;;;;5032175;28;20088;-42
2023/06/13 04:29:03;;;;;;;8.02;4.20;;;18.50;92.40;;;;;;5032172;28;20037;-40
2023/06/13 04:31:34;;;;;;;5.35;3.70;;;18.50;92.30;;;;;;5032175;28;20438;-39
2023/06/13 04:34:03;;;;;;;5.80;3.20;;;18.50;92.50;;;;;;5033583;28;20090;-40
2023/06/13 04:36:32;;;;;;;13.85;3.25;;;18.50;92.60;;;;;;5033447;28;20072;-39
2023/06/13 04:39:04;;;;;;;6.93;3.60;;;18.50;92.40;;;;;;5034400;28;20513;-39
2023/06/13 04:41:34;;;;;;;3.55;3.00;;;18.50;92.60;;;;;;5034229;28;20044;-39
2023/06/13 04:44:03;;;;;;;5.18;2.97;;;18.50;92.90;;;;;;5036031;28;20030;-40
2023/06/13 04:46:30;;;;;;;4.75;3.22;;;18.60;92.60;;;;;;5035324;28;20025;-39
2023/06/13 04:48:57;;;;;;;11.93;3.70;;;18.60;92.80;;;;;;5031272;28;20018;-37
2023/06/13 04:51:25;;;;;;;3.63;3.30;;;18.60;92.70;;;;;;5032803;28;20520;-38
2023/06/13 04:53:52;;;;;;;5.30;3.28;;;18.70;92.70;;;;;;5034082;28;20328;-38
2023/06/13 04:56:18;;;;;;;4.57;2.77;;;18.70;92.50;;;;;;5034214;28;20053;-38
2023/06/13 04:58:44;;;;;;;4.50;3.15;;;18.80;92.20;;;;;;5015491;28;20637;-39
2023/06/13 05:01:11;;;;;;;6.75;3.05;;;18.80;92.80;;;;;;5021619;28;20026;-38
2023/06/13 05:03:38;;;;;;;5.95;2.53;;;18.90;92.30;;;;;;5035412;28;20033;-41
2023/06/13 05:06:03;;;;;;;5.90;3.73;;;18.90;92.60;;;;;;5032990;28;20446;-56
2023/06/13 05:08:30;;;;;;;4.22;2.90;;;18.90;92.70;;;;;;5034989;28;20314;-38
2023/06/13 05:10:57;;;;;;;4.47;3.05;;;19.00;92.30;;;;;;5034873;28;20022;-39
2023/06/13 05:13:23;;;;;;;5.45;3.50;;;19.10;91.80;;;;;;5034939;28;20073;-38
2023/06/13 05:15:48;;;;;;;8.80;2.65;;;19.10;92.40;;;;;;5033643;28;20022;-39
2023/06/13 05:18:14;;;;;;;8.13;2.90;;;19.10;92.60;;;;;;5034992;28;20022;-38
2023/06/13 05:20:41;;;;;;;8.45;3.28;;;19.10;92.40;;;;;;5030418;28;20033;-40
2023/06/13 05:23:07;;;;;;;6.23;3.03;;;19.20;92.20;;;;;;5034743;28;20021;-48
2023/06/13 05:25:33;;;;;;;11.02;3.83;;;19.30;91.90;;;;;;5031981;28;20030;-39
2023/06/13 05:27:58;;;;;;;6.15;3.08;;;19.30;92.40;;;;;;5034833;28;20033;-41
2023/06/13 05:30:24;;;;;;;4.65;3.25;;;19.40;92.30;;;;;;5032525;28;20026;-39
2023/06/13 05:32:50;;;;;;;6.65;3.20;;;19.40;92.50;;;;;;5034543;28;20720;-37
2023/06/13 05:35:15;;;;;;;10.93;3.40;;;19.50;92.20;;;;;;5029673;28;20034;-39
2023/06/13 05:37:43;;;;;;;5.35;2.83;;;19.60;92.30;;;;;;5032657;28;20339;-40
2023/06/13 05:40:10;;;;;;;3.58;3.28;;;19.60;91.90;;;;;;5033172;28;20080;-39
2023/06/13 05:42:37;;;;;;;3.65;3.15;;;19.70;92.00;;;;;;5034196;28;20025;-39
2023/06/13 05:45:07;;;;;;;10.30;3.47;;;19.70;92.00;;;;;;5031749;28;20075;-41
2023/06/13 05:47:33;;;;;;;5.22;3.25;;;19.80;92.10;;;;;;5034212;28;20033;-45
2023/06/13 05:49:59;;;;;;;5.45;3.30;;;19.90;91.90;;;;;;5021056;28;20379;-39
2023/06/13 05:52:25;;;;;;;4.63;3.38;;;20.00;91.80;;;;;;5020374;28;20095;-39
2023/06/13 05:54:51;;;;;;;6.20;3.05;;;20.20;92.00;;;;;;5027672;28;20519;-40
2023/06/13 05:57:16;;;;;;;10.88;3.75;;;20.20;91.80;;;;;;5032399;28;20037;-40
2023/06/13 05:59:42;;;;;;;12.30;3.38;;;20.40;91.90;;;;;;5028917;28;20462;-39
2023/06/13 06:02:12;;;;;;;8.68;3.42;;;20.50;91.60;;;;;;5014207;28;20029;-39
2023/06/13 06:04:38;;;;;;;3.55;2.85;;;20.70;91.50;;;;;;5024115;28;20175;-39
2023/06/13 06:07:04;;;;;;;5.88;3.30;;;20.70;91.40;;;;;;5030951;28;20068;-37
2023/06/13 06:09:30;;;;;;;4.13;3.30;;;20.90;91.50;;;;;;5033904;28;20485;-41
2023/06/13 06:11:56;;;;;;;7.95;3.50;;;21.20;91.20;;;;;;5025627;28;20292;-40
2023/06/13 06:14:22;;;;;;;5.70;3.42;;;22.10;90.60;;;;;;5003337;28;20057;-40
2023/06/13 06:16:50;;;;;;;4.70;3.03;;;22.60;90.30;;;;;;5013862;28;20026;-41
2023/06/13 06:19:16;;;;;;;7.63;3.50;;;22.50;90.20;;;;;;5011111;28;20049;-40
2023/06/13 06:21:42;;;;;;;5.53;3.15;;;22.60;89.10;;;;;;5020465;28;20087;-39
2023/06/13 06:24:08;;;;;;;5.72;3.35;;;23.00;89.40;;;;;;5029516;28;20033;-40
2023/06/13 06:26:33;;;;;;;7.47;3.90;;;23.30;88.90;;;;;;5033499;28;20029;-48
2023/06/13 06:28:59;;;;;;;8.57;2.92;;;24.00;87.70;;;;;;5033447;28;20017;-47
2023/06/13 06:31:27;;;;;;;3.75;3.20;;;24.90;86.40;;;;;;5033661;28;20017;-39
2023/06/13 06:33:52;;;;;;;;;;;25.60;85.00;;;;;;5029705;28;20025;-41
2023/06/13 06:36:19;;;;;;;7.35;3.20;;;25.50;84.80;;;;;;5030262;28;19909;-40
2023/06/13 06:38:45;;;;;;;3.72;3.08;;;25.10;84.20;;;;;;5033629;28;20078;-40
2023/06/13 06:41:10;;;;;;;6.05;2.75;;;25.10;85.20;;;;;;5033265;28;20104;-40
2023/06/13 06:43:36;;;;;;;3.00;2.75;;;24.80;84.60;;;;;;5021823;28;20156;-40
2023/06/13 06:46:02;;;;;;;5.32;2.88;;;25.20;84.30;;;;;;5012803;28;20552;-39
2023/06/13 06:48:27;;;;;;;5.05;3.30;;;25.70;84.90;;;;;;5022628;28;20053;-40
2023/06/13 06:50:53;;;;;;;4.75;3.03;;;25.70;85.00;;;;;;5012106;28;20099;-40
2023/06/13 06:53:19;;;;;;;4.38;3.03;;;25.60;83.60;;;;;;5013414;28;20084;-40
2023/06/13 06:55:44;;;;;;;3.78;2.65;;;25.60;83.70;;;;;;5012628;28;20498;-40
2023/06/13 06:58:10;;;;;;;3.10;2.80;;;25.50;84.10;;;;;;5013118;28;20046;-40
2023/06/13 07:00:35;;;;;;;3.08;2.75;;;25.50;83.80;;;;;;5013606;28;20396;-40
2023/06/13 07:03:01;;;;;;;5.25;3.10;;;25.40;84.00;;;;;;5027369;28;20025;-40
2023/06/13 07:05:27;;;;;;;2.85;2.58;;;25.70;83.70;;;;;;5028089;28;20026;-40
2023/06/13 07:07:52;;;;;;;3.20;2.72;;;26.50;84.10;;;;;;5032948;28;20108;-38
2023/06/13 07:10:18;;;;;;;4.28;2.78;;;28.00;82.40;;;;;;5017241;28;20462;-52
2023/06/13 07:12:44;;;;;;;4.60;3.45;;;29.80;80.00;;;;;;5011779;28;20597;-40
2023/06/13 07:15:09;;;;;;;2.95;2.25;;;31.20;78.10;;;;;;5013255;28;20117;-39
2023/06/13 07:17:35;;;;;;;4.75;3.15;;;32.30;76.40;;;;;;5013213;28;20018;-51
2023/06/13 07:20:05;;;;;;;3.40;2.70;;;32.80;76.70;;;;;;5013070;28;20513;-40
2023/06/13 07:22:31;;;;;;;3.45;3.00;;;32.60;76.20;;;;;;5027673;28;20075;-39
2023/06/13 07:24:56;;;;;;;3.28;2.88;;;31.60;75.90;;;;;;5030409;28;20120;-37
2023/06/13 07:27:22;;;;;;;8.75;3.35;;;31.40;76.90;;;;;;5030289;28;20382;-40
2023/06/13 07:29:48;;;;;;;3.35;2.53;;;31.20;76.30;;;;;;5032703;28;20033;-31
2023/06/13 07:32:14;;;;;;;6.13;3.20;;;31.50;76.40;;;;;;5029779;28;20040;-31
2023/06/13 07:34:40;;;;;;;5.50;2.72;;;31.80;75.80;;;;;;5032505;28;20425;-33
2023/06/13 07:37:06;;;;;;;2.50;2.25;;;31.80;76.00;;;;;;5032767;28;20112;-33
2023/06/13 07:39:31;;;;;;;2.80;2.53;;;31.90;75.80;;;;;;5029506;28;20026;-31
2023/06/13 07:41:57;;;;;;;3.92;3.13;;;31.70;75.10;;;;;;5030521;28;20037;-32
2023/06/13 07:44:23;;;;;;;8.77;3.42;;;31.60;75.60;;;;;;5025961;28;20410;-38
2023/06/13 07:46:48;;;;;;;4.38;2.88;;;30.90;73.80;;;;;;5032521;28;20478;-32
2023/06/13 07:49:14;;;;;;;3.15;2.80;;;29.90;75.40;;;;;;5025986;28;20029;-32
2023/06/13 07:51:40;;;;;;;4.05;3.08;;;29.20;75.00;;;;;;5032487;28;20042;-46
2023/06/13 07:54:06;;;;;;;3.53;2.60;;;28.70;75.30;;;;;;5032389;28;20025;-34
2023/06/13 07:56:32;;;;;;;6.30;3.05;;;28.70;74.90;;;;;;5032226;28;20502;-33
2023/06/13 07:58:57;;;;;;;4.30;3.07;;;28.60;75.20;;;;;;5025570;28;20045;-33
2023/06/13 08:01:23;;;;;;;3.47;2.55;;;28.60;75.90;;;;;;5029568;28;20060;-34
2023/06/13 08:03:49;;;;;;;7.90;2.70;;;28.80;75.60;;;;;;5032625;28;20461;-35
2023/06/13 08:06:15;;;;;;;3.65;2.72;;;29.00;73.60;;;;;;5032444;28;20040;-33
2023/06/13 08:08:40;;;;;;;4.32;3.20;;;29.00;73.60;;;;;;5036326;28;20029;-66
2023/06/13 08:11:06;;;;;;;6.15;3.15;;;29.20;74.10;;;;;;5034518;28;20028;-38
2023/06/13 08:13:32;;;;;;;5.32;3.00;;;29.40;73.20;;;;;;5033198;28;20060;-35
2023/06/13 08:15:57;;;;;;;6.80;3.03;;;29.40;73.50;;;;;;5034255;28;20378;-33
2023/06/13 08:18:23;;;;;;;5.22;2.72;;;29.20;73.50;;;;;;5035946;28;20537;-36
2023/06/13 08:20:49;;;;;;;3.05;2.78;;;28.90;75.10;;;;;;5033513;28;20033;-32
2023/06/13 08:23:14;;;;;;;4.10;2.70;;;28.90;75.40;;;;;;5035743;28;20029;-36
2023/06/13 08:25:44;;;;;;;5.57;2.83;;;28.70;73.80;;;;;;5035848;28;20493;-33
2023/06/13 08:28:11;;;;;;;2.90;2.70;;;28.60;74.70;;;;;;5032960;28;20029;-31
2023/06/13 08:30:37;;;;;;;8.32;2.97;;;29.00;74.20;;;;;;5035770;28;20036;-33
2023/06/13 08:33:03;;;;;;;7.68;3.15;;;29.00;74.30;;;;;;5035707;28;20017;-38
2023/06/13 08:35:29;;;;;;;3.73;2.93;;;29.20;73.80;;;;;;5035977;28;20513;-29
2023/06/13 08:37:54;;;;;;;3.20;2.90;;;29.50;73.40;;;;;;5032442;28;20104;-33
2023/06/13 08:40:21;;;;;;;3.47;2.57;;;29.80;73.30;;;;;;5035457;28;20035;-34
2023/06/13 08:42:47;;;;;;;3.40;3.00;;;29.50;73.20;;;;;;5033082;28;20053;-41
2023/06/13 08:45:13;;;;;;;2.63;2.43;;;29.50;73.40;;;;;;5034573;28;20268;-41
2023/06/13 08:47:46;;;;;;;3.65;2.65;;;29.90;73.10;;;;;;5034174;28;20108;-41
2023/06/13 08:50:13;;;;;;;6.75;3.22;;;29.50;72.20;;;;;;5015946;28;20030;-39
2023/06/13 08:52:41;;;;;;;7.20;3.00;;;29.00;72.30;;;;;;5026079;28;20032;-40
2023/06/13 08:55:15;;;;;;;3.70;2.50;;;29.00;72.70;;;;;;5035324;28;20025;-40
2023/06/13 08:58:15;;;;;;;5.55;2.65;;;29.20;72.70;;;;;;5035065;28;20092;-39
2023/06/13 09:00:41;;;;;;;4.90;3.00;;;29.20;71.70;;;;;;4994578;28;20058;-41
2023/06/13 09:03:12;;;;;;;5.83;2.87;;;29.80;71.50;;;;;;4995820;28;20019;-39
2023/06/13 09:05:38;;;;;;;2.72;2.50;;;30.20;70.90;;;;;;5031048;28;20513;-43
2023/06/13 09:08:05;;;;;;;2.88;2.40;;;30.50;71.10;;;;;;5035147;28;20025;-40
2023/06/13 09:10:31;;;;;;;;;;;30.30;72.10;;;;;;5035527;28;20057;-40
2023/06/13 09:12:57;;;;;;;4.47;3.20;;;29.60;71.50;;;;;;5023398;28;19909;-40
2023/06/13 09:15:26;;;;;;;4.95;1.73;;;29.60;70.10;;;;;;5034885;28;20028;-39
2023/06/13 09:17:53;;;;;;;5.07;3.15;;;30.20;70.10;;;;;;5034031;28;20104;-41
2023/06/13 09:20:20;;;;;;;3.17;2.95;;;30.30;70.20;;;;;;5034981;28;20022;-38
2023/06/13 09:22:46;;;;;;;3.45;2.85;;;29.80;70.70;;;;;;5034620;28;20024;-38
2023/06/13 09:25:16;;;;;;;3.60;2.90;;;29.80;69.60;;;;;;5034702;28;20021;-45
2023/06/13 09:27:42;;;;;;;3.50;2.63;;;29.80;70.70;;;;;;5028428;28;20087;-44
2023/06/13 09:30:09;;;;;;;4.17;2.50;;;29.60;70.60;;;;;;5033403;28;20037;-44
2023/06/13 09:32:36;;;;;;;5.30;2.47;;;29.60;71.00;;;;;;5034454;28;20038;-53
2023/06/13 09:35:05;;;;;;;7.07;3.20;;;29.30;71.00;;;;;;5033234;28;20021;-40
2023/06/13 09:37:32;;;;;;;6.78;2.88;;;29.10;71.80;;;;;;5034669;28;20592;-47
2023/06/13 09:40:05;;;;;;;5.50;3.08;;;29.10;70.50;;;;;;5018748;28;20501;-39
2023/06/13 09:42:32;;;;;;;3.40;2.63;;;29.00;71.00;;;;;;5012916;28;20037;-39
2023/06/13 09:44:58;;;;;;;4.63;2.90;;;28.90;71.80;;;;;;5013609;28;20105;-40
2023/06/13 09:47:25;;;;;;;3.20;2.83;;;28.90;72.40;;;;;;5014485;28;20101;-38
2023/06/13 09:49:52;;;;;;;;;;;28.90;71.10;;;;;;5015094;28;20549;-39
2023/06/13 09:52:21;;;;;;;;;;;29.00;71.00;;;;;;5014747;28;19974;-39
2023/06/13 09:54:47;;;;;;;8.57;2.58;;;28.80;71.20;;;;;;5013686;28;19951;-39
2023/06/13 09:57:12;;;;;;;3.42;2.78;;;28.60;70.60;;;;;;5014193;28;20498;-39
2023/06/13 09:59:39;;;;;;;2.85;2.65;;;28.50;71.70;;;;;;5013249;28;20068;-38
2023/06/13 10:02:05;;;;;;;5.45;3.22;;;28.60;70.60;;;;;;5004801;28;20431;-40
2023/06/13 10:04:32;;;;;;;10.98;3.28;;;28.60;71.30;;;;;;4994423;28;20034;-40
2023/06/13 10:06:57;;;;;;;3.85;3.13;;;28.70;71.20;;;;;;4994876;28;20026;-46
2023/06/13 10:09:23;;;;;;;4.93;3.15;;;28.90;70.10;;;;;;4994549;28;20027;-38
2023/06/13 10:11:51;;;;;;;3.78;3.05;;;29.00;72.10;;;;;;5008552;28;20036;-40
2023/06/13 10:14:22;;;;;;;5.82;2.92;;;29.00;70.70;;;;;;5014088;28;20022;-40
2023/06/13 10:16:51;;;;;;;8.27;3.55;;;29.10;71.80;;;;;;5013872;28;20029;-39
2023/06/13 10:19:21;;;;;;;5.53;3.15;;;29.00;71.20;;;;;;5013958;28;20029;-41
2023/06/13 10:21:47;;;;;;;4.47;2.95;;;29.10;69.10;;;;;;5013832;28;20383;-43
2023/06/13 10:24:15;;;;;;;3.47;3.15;;;29.00;70.00;;;;;;5013666;28;20037;-30
2023/06/13 10:26:43;;;;;;;6.43;3.05;;;28.90;69.90;;;;;;5014029;28;20049;-32
2023/06/13 10:29:20;;;;;;;3.30;3.00;;;29.00;71.30;;;;;;5012978;28;20025;-35
2023/06/13 10:31:56;;;;;;;5.93;2.90;;;29.00;71.00;;;;;;5013693;28;20030;-32
2023/06/13 10:34:51;;;;;;;5.07;3.28;;;29.20;71.00;;;;;;5013969;28;20467;-33
2023/06/13 10:37:32;;;;;;;2.92;2.60;;;29.10;71.20;;;;;;5012485;28;20100;-51
2023/06/13 10:40:28;;;;;;;3.22;2.92;;;29.00;72.80;;;;;;5013477;28;20020;-33
2023/06/13 10:43:19;;;;;;;5.47;2.97;;;29.00;71.90;;;;;;5013863;28;20426;-33
2023/06/13 10:45:46;;;;;;;3.88;2.70;;;28.60;71.30;;;;;;5001536;28;20368;-33
2023/06/13 10:48:12;;;;;;;3.60;2.75;;;28.40;72.50;;;;;;4999494;28;20112;-36
2023/06/13 10:50:43;;;;;;;8.85;3.58;;;28.80;72.10;;;;;;5012028;28;20125;-32
2023/06/13 10:53:22;;;;;;;3.17;2.85;;;29.00;71.20;;;;;;5013326;28;20022;-33
2023/06/13 10:55:49;;;;;;;7.47;2.55;;;29.20;72.70;;;;;;5013270;28;20402;-43
2023/06/13 10:58:16;;;;;;;2.60;2.40;;;29.10;71.70;;;;;;5012978;28;20084;-33
2023/06/13 11:00:43;;;;;;;14.82;3.17;;;29.00;72.20;;;;;;5012021;28;20080;-39
2023/06/13 11:03:13;;;;;;;3.72;3.42;;;28.70;72.60;;;;;;5012465;28;20049;-32
2023/06/13 11:05:45;;;;;;;4.57;3.33;;;28.50;73.70;;;;;;5013141;28;20022;-32
2023/06/13 11:08:15;;;;;;;2.75;2.50;;;28.60;73.40;;;;;;5013105;28;20124;-34
2023/06/13 11:10:43;;;;;;;4.88;3.20;;;28.70;74.10;;;;;;5013071;28;20041;-34
2023/06/13 11:13:20;;;;;;;5.82;2.80;;;28.70;73.50;;;;;;5013031;28;20025;-36
2023/06/13 11:15:47;;;;;;;3.80;3.35;;;28.70;73.40;;;;;;5013344;28;20105;-34
2023/06/13 11:18:14;;;;;;;4.05;2.90;;;28.50;71.50;;;;;;5012207;28;20092;-35
2023/06/13 11:20:53;;;;;;;3.00;2.72;;;28.50;70.80;;;;;;5013309;28;20497;-33
2023/06/13 11:23:37;;;;;;;6.40;3.45;;;28.50;71.10;;;;;;5012907;28;20026;-34
2023/06/13 11:26:03;;;;;;;5.43;2.65;;;28.60;72.10;;;;;;5012956;28;20022;-34
2023/06/13 11:28:30;;;;;;;4.93;2.92;;;28.90;71.20;;;;;;5013201;28;20021;-33
2023/06/13 11:31:01;;;;;;;3.33;2.97;;;28.90;71.20;;;;;;5012942;28;20014;-33
2023/06/13 11:33:29;;;;;;;4.20;2.60;;;28.60;70.50;;;;;;5012870;28;20084;-30
2023/06/13 11:35:57;;;;;;;3.30;2.85;;;28.40;71.60;;;;;;5012184;28;20465;-34
2023/06/13 11:38:43;;;;;;;5.45;2.97;;;28.60;72.50;;;;;;5013009;28;20470;-35
2023/06/13 11:41:09;;;;;;;3.20;2.70;;;28.80;70.40;;;;;;5013950;28;20104;-35
2023/06/13 11:43:35;;;;;;;4.47;2.63;;;28.90;70.50;;;;;;5016766;28;20022;-33
2023/06/13 11:46:02;;;;;;;9.00;3.30;;;28.90;70.20;;;;;;5016888;28;20022;-32
2023/06/13 11:48:28;;;;;;;3.10;2.80;;;29.00;71.00;;;;;;5016563;28;20018;-33
2023/06/13 11:51:16;;;;;;;3.28;2.97;;;29.10;71.00;;;;;;5016642;28;20390;-32
2023/06/13 11:53:52;;;;;;;6.45;3.00;;;29.20;71.40;;;;;;5015928;28;20029;-31
2023/06/13 11:56:19;;;;;;;5.72;2.97;;;29.30;71.70;;;;;;5016760;28;20058;-40
2023/06/13 11:58:46;;;;;;;4.28;2.85;;;29.40;71.20;;;;;;5016881;28;20030;-40
2023/06/13 12:01:15;;;;;;;3.13;2.80;;;29.40;71.70;;;;;;5016532;28;20099;-40
2023/06/13 12:03:43;;;;;;;3.22;2.80;;;29.30;70.60;;;;;;5015119;28;20026;-39
2023/06/13 12:06:08;;;;;;;5.43;2.97;;;29.20;70.50;;;;;;5016437;28;20394;-40
2023/06/13 12:08:35;;;;;;;7.13;2.90;;;28.90;70.80;;;;;;5016360;28;20030;-41
2023/06/13 12:11:09;;;;;;;5.18;3.00;;;28.70;70.80;;;;;;5016579;28;20465;-39
2023/06/13 12:13:35;;;;;;;5.25;3.40;;;28.90;71.60;;;;;;5016357;28;20479;-49
2023/06/13 12:16:01;;;;;;;10.43;3.00;;;29.40;70.60;;;;;;5016236;28;20088;-42
2023/06/13 12:18:29;;;;;;;9.30;3.22;;;29.50;70.50;;;;;;5016159;28;20034;-41
2023/06/13 12:20:59;;;;;;;5.05;2.70;;;29.40;70.80;;;;;;5016429;28;20497;-39
2023/06/13 12:23:24;;;;;;;5.07;3.80;;;29.40;70.70;;;;;;5016038;28;20026;-60
2023/06/13 12:25:51;;;;;;;4.32;2.70;;;29.40;70.30;;;;;;5016362;28;20028;-44
2023/06/13 12:28:19;;;;;;;4.75;2.85;;;29.40;70.60;;;;;;5015391;28;20029;-41
2023/06/13 12:30:49;;;;;;;13.93;3.67;;;29.50;70.70;;;;;;5031280;28;20061;-39
2023/06/13 12:33:19;;;;;;;3.83;3.22;;;29.60;69.90;;;;;;5016463;28;20032;-42
2023/06/13 12:35:52;;;;;;;3.10;2.80;;;29.60;70.80;;;;;;5014640;28;20029;-40
2023/06/13 12:38:31;;;;;;;5.25;3.22;;;29.60;70.70;;;;;;5015834;28;20030;-41
2023/06/13 12:40:57;;;;;;;3.83;2.95;;;29.60;70.30;;;;;;5015860;28;20021;-40
2023/06/13 12:43:28;;;;;;;7.10;3.70;;;29.70;70.40;;;;;;5013554;28;20022;-43
2023/06/13 12:45:58;;;;;;;3.70;2.95;;;29.70;70.60;;;;;;4996476;28;20026;-41
2023/06/13 12:48:25;;;;;;;13.25;3.40;;;29.40;71.10;;;;;;5002234;28;20383;-39
2023/06/13 12:50:52;;;;;;;3.50;2.88;;;29.20;70.70;;;;;;5015747;28;20025;-39